Time;durP1;ratioP1;P1;durP2;ratioP2;P2;SDS_P1;SDS_P2;PMS_P1;PMS_P2;Temp;Humidity;BMP_temperature;BMP_pressure;BME280_temperature;BME280_humidity;BME280_pressure;Samples;Min_cycle;Max_cycle;Signal;HPM_P1;HPM_P2
2022/06/05 00:01:53;;;;;;;14.98;10.70;;;;;;;;;;4287230;83;28507;-72
2022/06/05 00:08:10;;;;;;;12.65;10.72;;;;;;;;;;4343002;80;28504;-73
2022/06/05 00:14:11;;;;;;;17.37;12.98;;;;;;;;;;4350346;80;28502;-72
2022/06/05 00:20:13;;;;;;;24.45;14.47;;;;;;;;;;4240463;82;28603;-73
2022/06/05 00:26:54;;;;;;;28.05;16.05;;;;;;;;;;4325713;82;28522;-73
2022/06/05 00:33:02;;;;;;;26.50;15.40;;;;;;;;;;4291477;82;28578;-73
2022/06/05 00:39:18;;;;;;;29.20;17.17;;;;;;;;;;4283681;82;28602;-73
2022/06/05 00:45:20;;;;;;;32.00;16.90;;;;;;;;;;4313497;80;28527;-72
2022/06/05 00:51:21;;;;;;;25.62;17.55;;;;;;;;;;4291655;82;28538;-73
2022/06/05 00:57:29;;;;;;;30.17;17.37;;;;;;;;;;4280936;82;28451;-72
2022/06/05 01:03:30;;;;;;;29.12;18.67;;;;;;;;;;4363186;80;28519;-73
2022/06/05 01:09:32;;;;;;;30.50;19.25;;;;;;;;;;4365183;80;28498;-73
2022/06/05 01:15:36;;;;;;;28.05;18.67;;;;;;;;;;4367555;80;28492;-72
2022/06/05 01:21:51;;;;;;;28.42;19.57;;;;;;;;;;4348593;81;28533;-72
2022/06/05 01:27:56;;;;;;;27.30;19.30;;;;;;;;;;4282054;82;28510;-73
2022/06/05 01:34:34;;;;;;;28.00;19.45;;;;;;;;;;4293640;82;28546;-73
2022/06/05 01:40:40;;;;;;;25.52;17.80;;;;;;;;;;4357937;80;28957;-73
2022/06/05 01:46:41;;;;;;;24.98;17.90;;;;;;;;;;4345055;80;28576;-73
2022/06/05 01:53:01;;;;;;;23.73;17.20;;;;;;;;;;4360309;80;28578;-73
2022/06/05 01:59:15;;;;;;;22.32;16.67;;;;;;;;;;4361523;80;28547;-73
2022/06/05 02:05:20;;;;;;;22.17;16.12;;;;;;;;;;4326951;81;28469;-73
2022/06/05 02:11:27;;;;;;;21.93;15.60;;;;;;;;;;4355128;80;28455;-73
2022/06/05 02:17:30;;;;;;;22.02;16.20;;;;;;;;;;4360684;80;28547;-73
2022/06/05 02:23:34;;;;;;;22.05;15.23;;;;;;;;;;4358436;80;28572;-73
2022/06/05 02:29:36;;;;;;;23.00;16.32;;;;;;;;;;4361217;81;28542;-73
2022/06/05 02:35:57;;;;;;;23.83;16.80;;;;;;;;;;4345018;81;28547;-72
2022/06/05 02:42:19;;;;;;;27.10;17.87;;;;;;;;;;4334746;81;28542;-73
2022/06/05 02:48:30;;;;;;;24.85;16.70;;;;;;;;;;4356969;81;28541;-73
2022/06/05 02:54:32;;;;;;;23.00;15.60;;;;;;;;;;4356545;81;28545;-73
2022/06/05 03:00:35;;;;;;;23.65;16.00;;;;;;;;;;4357504;81;28504;-74
2022/06/05 03:06:39;;;;;;;21.73;14.95;;;;;;;;;;4286261;81;28486;-73
2022/06/05 03:12:41;;;;;;;20.82;13.28;;;;;;;;;;4295798;83;28566;-74
2022/06/05 03:18:42;;;;;;;20.80;14.25;;;;;;;;;;4295981;83;28541;-74
2022/06/05 03:24:43;;;;;;;21.02;14.55;;;;;;;;;;4297015;83;28470;-73
2022/06/05 03:30:45;;;;;;;24.87;14.85;;;;;;;;;;4302812;83;28525;-73
2022/06/05 03:36:47;;;;;;;22.35;14.25;;;;;;;;;;4297584;83;28510;-73
2022/06/05 03:42:49;;;;;;;25.17;13.98;;;;;;;;;;4295374;83;28518;-74
2022/06/05 03:48:50;;;;;;;22.27;15.13;;;;;;;;;;4296237;83;28562;-74
2022/06/05 03:54:51;;;;;;;21.17;14.83;;;;;;;;;;4297957;83;28569;-73
2022/06/05 04:00:52;;;;;;;19.75;14.38;;;;;;;;;;4302739;83;28530;-74
2022/06/05 04:06:53;;;;;;;21.73;14.00;;;;;;;;;;4286362;83;28492;-73
2022/06/05 04:12:55;;;;;;;21.35;14.33;;;;;;;;;;4303302;83;28499;-74
2022/06/05 04:18:57;;;;;;;21.02;14.70;;;;;;;;;;4288874;83;28654;-73
2022/06/05 04:24:59;;;;;;;19.85;13.98;;;;;;;;;;4297605;83;28523;-74
2022/06/05 04:31:00;;;;;;;18.20;13.45;;;;;;;;;;4286639;82;28537;-73
2022/06/05 04:37:02;;;;;;;19.80;13.43;;;;;;;;;;4299805;83;28554;-73
2022/06/05 04:43:03;;;;;;;22.85;15.32;;;;;;;;;;4287227;81;28606;-74
2022/06/05 04:49:06;;;;;;;25.45;14.73;;;;;;;;;;4269744;83;28544;-73
2022/06/05 04:55:08;;;;;;;21.37;13.95;;;;;;;;;;4255418;83;28502;-74
2022/06/05 05:01:12;;;;;;;21.62;14.18;;;;;;;;;;4255510;83;28566;-73
2022/06/05 05:07:16;;;;;;;20.37;13.48;;;;;;;;;;4166817;85;28458;-72
2022/06/05 05:13:17;;;;;;;21.25;14.43;;;;;;;;;;4253124;83;28483;-73
2022/06/05 05:19:18;;;;;;;24.32;15.60;;;;;;;;;;4181042;84;28488;-73
2022/06/05 05:25:19;;;;;;;24.07;15.80;;;;;;;;;;4266750;83;28507;-73
2022/06/05 05:31:27;;;;;;;24.45;15.70;;;;;;;;;;4259970;83;28553;-73
2022/06/05 05:37:28;;;;;;;26.55;15.90;;;;;;;;;;4271112;83;28540;-73
2022/06/05 05:43:29;;;;;;;23.52;15.55;;;;;;;;;;4276710;81;28612;-73
2022/06/05 05:49:30;;;;;;;23.57;15.72;;;;;;;;;;4269500;83;28557;-73
2022/06/05 05:55:32;;;;;;;24.67;16.23;;;;;;;;;;4277495;83;28524;-73
2022/06/05 06:01:33;;;;;;;26.30;16.10;;;;;;;;;;4280548;83;28512;-73
2022/06/05 06:07:34;;;;;;;26.42;16.35;;;;;;;;;;4245300;83;28539;-73
2022/06/05 06:13:35;;;;;;;24.37;17.07;;;;;;;;;;4242209;83;28535;-73
2022/06/05 06:19:37;;;;;;;24.47;17.60;;;;;;;;;;4245432;83;28500;-73
2022/06/05 06:25:38;;;;;;;23.45;17.32;;;;;;;;;;4260628;83;28496;-73
2022/06/05 06:31:41;;;;;;;25.50;17.05;;;;;;;;;;4279967;83;28450;-73
2022/06/05 06:37:43;;;;;;;22.42;16.80;;;;;;;;;;4243072;83;28496;-73
2022/06/05 06:43:45;;;;;;;24.80;18.07;;;;;;;;;;4199768;82;28533;-73
2022/06/05 06:49:47;;;;;;;22.82;17.37;;;;;;;;;;4276452;81;28593;-73
2022/06/05 06:55:49;;;;;;;24.45;18.42;;;;;;;;;;4314295;81;28442;-73
2022/06/05 07:01:50;;;;;;;24.23;17.73;;;;;;;;;;4294590;81;28524;-73
2022/06/05 07:07:51;;;;;;;24.80;18.40;;;;;;;;;;4283072;81;28506;-73
2022/06/05 07:13:53;;;;;;;22.15;17.77;;;;;;;;;;4299815;81;28516;-73
2022/06/05 07:19:54;;;;;;;23.18;17.92;;;;;;;;;;4284045;81;28528;-73
2022/06/05 07:25:55;;;;;;;23.75;18.52;;;;;;;;;;4284881;81;28541;-73
2022/06/05 07:31:56;;;;;;;22.98;17.87;;;;;;;;;;4296475;81;28580;-73
2022/06/05 07:37:57;;;;;;;22.07;17.87;;;;;;;;;;4299061;81;28478;-73
2022/06/05 07:44:00;;;;;;;23.80;18.17;;;;;;;;;;4274050;80;28541;-74
2022/06/05 07:50:02;;;;;;;21.45;17.07;;;;;;;;;;4333538;81;28495;-73
2022/06/05 07:56:03;;;;;;;19.23;17.12;;;;;;;;;;4281106;81;28474;-73
2022/06/05 08:02:14;;;;;;;19.25;15.72;;;;;;;;;;4292102;82;28516;-73
2022/06/05 08:08:15;;;;;;;19.73;15.58;;;;;;;;;;4298849;81;28548;-73
2022/06/05 08:14:16;;;;;;;18.48;15.60;;;;;;;;;;4324642;80;28556;-73
2022/06/05 08:20:19;;;;;;;15.95;14.25;;;;;;;;;;4345541;80;28491;-73
2022/06/05 08:26:20;;;;;;;17.42;15.00;;;;;;;;;;4276293;82;28604;-73
2022/06/05 08:32:23;;;;;;;19.07;15.70;;;;;;;;;;4303791;81;28510;-73
2022/06/05 08:45:00;;;;;;;14.13;12.63;;;;;;;;;;4291582;81;28492;-74
2022/06/05 08:51:05;;;;;;;13.95;12.00;;;;;;;;;;4276545;82;28593;-74
2022/06/05 08:57:13;;;;;;;12.35;10.88;;;;;;;;;;4285251;82;28610;-74
2022/06/05 09:03:24;;;;;;;12.60;11.35;;;;;;;;;;4275715;82;28531;-74
2022/06/05 09:09:29;;;;;;;12.05;10.95;;;;;;;;;;4251123;82;28526;-72
2022/06/05 09:15:34;;;;;;;10.08;9.08;;;;;;;;;;4277360;82;28646;-72
2022/06/05 09:21:42;;;;;;;12.07;10.00;;;;;;;;;;4360336;81;28563;-74
2022/06/05 09:27:53;;;;;;;11.20;10.08;;;;;;;;;;4328441;81;28893;-73
2022/06/05 09:33:56;;;;;;;12.35;10.88;;;;;;;;;;4251531;83;28497;-74
2022/06/05 09:40:04;;;;;;;11.33;10.28;;;;;;;;;;4279727;82;28519;-73
2022/06/05 09:46:11;;;;;;;9.58;7.75;;;;;;;;;;4260297;81;28543;-72
2022/06/05 09:52:16;;;;;;;7.97;7.17;;;;;;;;;;4222184;83;28480;-73
2022/06/05 09:58:37;;;;;;;8.15;6.80;;;;;;;;;;4289251;81;28479;-73
2022/06/05 10:04:38;;;;;;;7.62;6.53;;;;;;;;;;4288505;81;28604;-73
2022/06/05 10:10:42;;;;;;;6.70;5.97;;;;;;;;;;4222622;82;28527;-74
2022/06/05 10:16:50;;;;;;;6.75;5.33;;;;;;;;;;4278717;81;28512;-74
2022/06/05 10:22:57;;;;;;;6.85;5.45;;;;;;;;;;4239820;82;28562;-74
2022/06/05 10:29:11;;;;;;;7.12;5.70;;;;;;;;;;4217589;82;28509;-73
2022/06/05 10:35:22;;;;;;;7.42;5.53;;;;;;;;;;4276883;81;28481;-74
2022/06/05 10:41:44;;;;;;;5.70;5.20;;;;;;;;;;4230156;81;28579;-74
2022/06/05 10:47:57;;;;;;;6.92;5.35;;;;;;;;;;4300072;82;28526;-72
2022/06/05 10:54:08;;;;;;;7.05;5.20;;;;;;;;;;4356822;81;28542;-74
2022/06/05 11:00:13;;;;;;;7.22;5.80;;;;;;;;;;4275299;82;28493;-73
2022/06/05 11:06:19;;;;;;;6.05;5.45;;;;;;;;;;4358109;80;28554;-73
2022/06/05 11:19:08;;;;;;;4.30;3.90;;;;;;;;;;4284419;82;28510;-73
2022/06/05 11:25:13;;;;;;;6.28;4.90;;;;;;;;;;4270444;82;28560;-73
2022/06/05 11:31:18;;;;;;;5.58;4.72;;;;;;;;;;4343634;81;28469;-73
2022/06/05 11:37:38;;;;;;;5.87;5.17;;;;;;;;;;4357013;81;28449;-73
2022/06/05 11:43:41;;;;;;;5.05;4.53;;;;;;;;;;4279677;82;28480;-72
2022/06/05 11:49:51;;;;;;;6.35;5.42;;;;;;;;;;4275731;82;28481;-72
2022/06/05 11:56:15;;;;;;;4.97;4.20;;;;;;;;;;4287509;81;28519;-73
2022/06/05 12:02:25;;;;;;;3.90;3.60;;;;;;;;;;4281768;81;28585;-73
2022/06/05 12:08:33;;;;;;;4.87;3.55;;;;;;;;;;4282132;81;28529;-74
2022/06/05 12:14:44;;;;;;;4.25;3.72;;;;;;;;;;4356285;80;28525;-74
2022/06/05 12:20:55;;;;;;;3.92;3.60;;;;;;;;;;4348780;80;28581;-74
2022/06/05 12:27:11;;;;;;;4.12;3.22;;;;;;;;;;4366720;80;28586;-73
2022/06/05 12:33:37;;;;;;;4.58;3.50;;;;;;;;;;4368293;80;28531;-74
2022/06/05 12:39:47;;;;;;;4.03;3.72;;;;;;;;;;4341375;81;28531;-73
2022/06/05 12:45:52;;;;;;;3.70;3.40;;;;;;;;;;4349192;80;28537;-72
2022/06/05 12:52:21;;;;;;;3.77;3.08;;;;;;;;;;4270952;83;28487;-73
2022/06/05 12:58:33;;;;;;;3.80;3.50;;;;;;;;;;4250740;82;28514;-73
2022/06/05 13:04:57;;;;;;;4.55;3.55;;;;;;;;;;4269134;83;28535;-73
2022/06/05 13:11:08;;;;;;;4.70;3.02;;;;;;;;;;4269591;83;28501;-73
2022/06/05 13:17:22;;;;;;;3.50;3.12;;;;;;;;;;4265436;83;28499;-73
2022/06/05 13:23:33;;;;;;;4.20;3.50;;;;;;;;;;4264642;83;28527;-73
2022/06/05 13:29:59;;;;;;;3.42;2.98;;;;;;;;;;4261147;83;28492;-73
2022/06/05 13:36:15;;;;;;;4.17;3.55;;;;;;;;;;4261073;83;28545;-73
2022/06/05 13:42:19;;;;;;;4.08;3.33;;;;;;;;;;4248531;83;28548;-73
2022/06/05 13:48:38;;;;;;;3.67;3.05;;;;;;;;;;4283295;81;28535;-74
2022/06/05 13:54:49;;;;;;;3.30;3.00;;;;;;;;;;4317100;81;28579;-83
2022/06/05 14:00:59;;;;;;;2.98;2.77;;;;;;;;;;4315636;81;28579;-84
2022/06/05 14:07:13;;;;;;;4.65;3.08;;;;;;;;;;4294263;81;28556;-84
2022/06/05 14:13:15;;;;;;;3.42;2.72;;;;;;;;;;4313231;81;29042;-82
2022/06/05 14:19:19;;;;;;;4.65;2.85;;;;;;;;;;4298290;81;28555;-80
2022/06/05 14:25:30;;;;;;;4.45;3.00;;;;;;;;;;4297989;81;28553;-80
2022/06/05 14:31:31;;;;;;;4.10;3.00;;;;;;;;;;4301884;81;28577;-79
2022/06/05 14:37:36;;;;;;;3.40;2.90;;;;;;;;;;4295183;81;28518;-80
2022/06/05 14:44:00;;;;;;;3.37;3.08;;;;;;;;;;4301259;81;28603;-80
2022/06/05 14:50:05;;;;;;;4.90;3.10;;;;;;;;;;4300375;81;28574;-80
2022/06/05 15:02:39;;;;;;;3.77;3.00;;;;;;;;;;4307789;81;28550;-80
2022/06/05 15:08:52;;;;;;;2.85;2.65;;;;;;;;;;4307233;81;28552;-79
2022/06/05 15:15:00;;;;;;;5.83;2.83;;;;;;;;;;4317067;81;28492;-81
2022/06/05 15:21:27;;;;;;;3.62;3.10;;;;;;;;;;4308860;81;28566;-82
2022/06/05 15:27:53;;;;;;;3.62;2.52;;;;;;;;;;4296179;81;28540;-79
2022/06/05 15:33:58;;;;;;;3.62;2.62;;;;;;;;;;4306094;81;28592;-80
2022/06/05 15:40:03;;;;;;;3.17;2.87;;;;;;;;;;4310884;81;28588;-78
2022/06/05 15:46:11;;;;;;;3.00;2.70;;;;;;;;;;4316711;81;28493;-82
2022/06/05 15:52:42;;;;;;;5.67;2.72;;;;;;;;;;4313129;81;28518;-81
2022/06/05 15:59:08;;;;;;;4.00;2.83;;;;;;;;;;4287810;81;28949;-84
2022/06/05 16:05:22;;;;;;;3.55;2.80;;;;;;;;;;4342403;80;28534;-82
2022/06/05 16:11:27;;;;;;;2.80;2.50;;;;;;;;;;4285742;81;28628;-86
2022/06/05 16:17:47;;;;;;;2.55;2.35;;;;;;;;;;4346099;80;28486;-83
2022/06/05 16:23:58;;;;;;;3.55;2.47;;;;;;;;;;4348484;80;28502;-81
2022/06/05 16:29:59;;;;;;;3.12;2.72;;;;;;;;;;4345552;81;28507;-86
2022/06/05 16:42:31;;;;;;;3.95;2.55;;;;;;;;;;4352089;80;28557;-86
2022/06/05 16:48:58;;;;;;;4.25;2.70;;;;;;;;;;4355950;80;28519;-82
2022/06/05 16:55:00;;;;;;;;;;;;;;;;;;4368573;80;28534;-86
2022/06/05 17:01:08;;;;;;;2.42;2.22;;;;;;;;;;4350994;80;20194;-82
2022/06/05 17:07:28;;;;;;;2.58;2.33;;;;;;;;;;4351073;80;28543;-82
2022/06/05 17:13:33;;;;;;;2.47;2.27;;;;;;;;;;4352037;80;28467;-85
2022/06/05 17:19:40;;;;;;;3.35;2.37;;;;;;;;;;4284943;82;28561;-83
2022/06/05 17:26:12;;;;;;;2.50;2.30;;;;;;;;;;4336817;80;28596;-83
2022/06/05 17:32:26;;;;;;;2.50;1.90;;;;;;;;;;4362629;80;28462;-83
2022/06/05 17:38:44;;;;;;;4.08;2.30;;;;;;;;;;4296526;81;28477;-82
2022/06/05 17:45:14;;;;;;;2.80;2.10;;;;;;;;;;4284210;82;28474;-83
2022/06/05 17:51:38;;;;;;;2.47;2.27;;;;;;;;;;4333838;80;28475;-85
2022/06/05 17:57:40;;;;;;;3.52;2.37;;;;;;;;;;4305537;81;28515;-88
2022/06/05 18:03:43;;;;;;;2.92;2.10;;;;;;;;;;4288171;81;28565;-87
2022/06/05 18:09:55;;;;;;;3.15;2.08;;;;;;;;;;4313640;81;28475;-89
2022/06/05 18:16:00;;;;;;;3.65;2.00;;;;;;;;;;4261348;82;28552;-83
2022/06/05 18:22:04;;;;;;;3.40;2.08;;;;;;;;;;4276323;81;28529;-89
2022/06/05 18:28:21;;;;;;;3.65;2.10;;;;;;;;;;4286702;81;28521;-86
2022/06/05 18:34:28;;;;;;;4.42;2.05;;;;;;;;;;4293350;81;28588;-86
2022/06/05 18:40:36;;;;;;;3.33;2.27;;;;;;;;;;4288953;81;28459;-86
2022/06/05 18:46:39;;;;;;;5.22;2.22;;;;;;;;;;4351013;80;28558;-86
2022/06/05 18:52:42;;;;;;;3.55;2.30;;;;;;;;;;4283585;81;28500;-86
2022/06/05 18:58:43;;;;;;;3.80;2.35;;;;;;;;;;4281212;81;28488;-84
2022/06/05 19:04:53;;;;;;;5.15;2.75;;;;;;;;;;4280957;82;28538;-85
2022/06/05 19:10:58;;;;;;;5.17;2.72;;;;;;;;;;4345207;80;28541;-88
2022/06/05 19:17:10;;;;;;;5.03;2.77;;;;;;;;;;4281300;82;28482;-87
2022/06/05 19:23:21;;;;;;;2.85;2.60;;;;;;;;;;4269785;81;28522;-83
2022/06/05 19:29:35;;;;;;;4.95;2.58;;;;;;;;;;4275951;81;28515;-81
2022/06/05 19:37:16;;;;;;;4.17;2.70;;;;;;;;;;4296974;81;28511;-83
2022/06/05 19:41:46;;;;;;;3.70;2.90;;;;;;;;;;4251264;82;28525;-83
2022/06/05 19:47:53;;;;;;;2.65;2.45;;;;;;;;;;4279118;82;28472;-84
2022/06/05 19:53:56;;;;;;;4.42;3.12;;;;;;;;;;4214573;83;28530;-82
2022/06/05 20:00:07;;;;;;;5.45;3.30;;;;;;;;;;4201059;83;28501;-84
2022/06/05 20:06:21;;;;;;;4.03;3.25;;;;;;;;;;4272748;82;28557;-85
2022/06/05 20:12:43;;;;;;;6.20;3.70;;;;;;;;;;4263521;83;28587;-82
2022/06/05 20:18:47;;;;;;;4.95;3.75;;;;;;;;;;4275867;83;28579;-84
2022/06/05 20:24:50;;;;;;;5.53;4.10;;;;;;;;;;4195785;83;28479;-86
2022/06/05 20:31:15;;;;;;;5.78;3.98;;;;;;;;;;4242381;83;28586;-86
2022/06/05 20:37:22;;;;;;;6.78;4.50;;;;;;;;;;4299731;82;28570;-86
2022/06/05 20:43:28;;;;;;;6.08;3.83;;;;;;;;;;4285672;82;28508;-87
2022/06/05 20:49:44;;;;;;;6.17;4.42;;;;;;;;;;4306313;81;28510;-85
2022/06/05 20:55:48;;;;;;;6.50;4.45;;;;;;;;;;4308395;81;28549;-86
2022/06/05 21:01:56;;;;;;;5.33;4.53;;;;;;;;;;4311049;81;28543;-86
2022/06/05 21:07:58;;;;;;;6.65;4.78;;;;;;;;;;4285286;81;28558;-87
2022/06/05 21:20:23;;;;;;;7.83;4.22;;;;;;;;;;4302575;81;28466;-83
2022/06/05 21:26:26;;;;;;;7.42;4.28;;;;;;;;;;4285912;81;28491;-86
2022/06/05 21:32:33;;;;;;;6.67;4.92;;;;;;;;;;4299849;81;28479;-83
2022/06/05 21:38:45;;;;;;;8.18;5.15;;;;;;;;;;4301325;81;28545;-84
2022/06/05 21:44:47;;;;;;;6.25;5.03;;;;;;;;;;4303791;81;28550;-85
2022/06/05 21:50:51;;;;;;;7.50;5.50;;;;;;;;;;4290736;81;28539;-84
2022/06/05 21:56:54;;;;;;;9.60;6.00;;;;;;;;;;4288921;82;28612;-84
2022/06/05 22:02:55;;;;;;;8.30;5.37;;;;;;;;;;4267610;82;28514;-84
2022/06/05 22:09:00;;;;;;;6.12;5.47;;;;;;;;;;4231284;83;28525;-84
2022/06/05 22:15:01;;;;;;;8.35;5.90;;;;;;;;;;4214879;83;28530;-84
2022/06/05 22:21:05;;;;;;;9.23;5.90;;;;;;;;;;4204983;83;28548;-84
2022/06/05 22:27:08;;;;;;;7.50;5.55;;;;;;;;;;4207629;83;28532;-82
2022/06/05 22:33:10;;;;;;;8.83;5.90;;;;;;;;;;4196758;83;28518;-85
2022/06/05 22:39:11;;;;;;;8.65;6.37;;;;;;;;;;4222625;83;28522;-82
2022/06/05 22:45:13;;;;;;;8.53;6.75;;;;;;;;;;4217775;83;28578;-84
2022/06/05 22:51:14;;;;;;;8.68;6.78;;;;;;;;;;4244872;82;28493;-85
2022/06/05 22:57:15;;;;;;;8.80;6.53;;;;;;;;;;4343619;80;28557;-84
2022/06/05 23:03:19;;;;;;;9.23;6.97;;;;;;;;;;4301579;81;28593;-84
2022/06/05 23:09:21;;;;;;;9.53;7.35;;;;;;;;;;4309451;81;28481;-83
2022/06/05 23:15:22;;;;;;;10.63;7.97;;;;;;;;;;4307832;82;28602;-83
2022/06/05 23:21:23;;;;;;;10.82;8.28;;;;;;;;;;4336088;81;28500;-83
2022/06/05 23:27:25;;;;;;;11.20;9.00;;;;;;;;;;4243879;82;28512;-84
2022/06/05 23:33:28;;;;;;;12.75;9.83;;;;;;;;;;4342350;80;28574;-83
2022/06/05 23:39:30;;;;;;;13.50;11.08;;;;;;;;;;4266949;81;28507;-85
2022/06/05 23:45:31;;;;;;;13.95;11.30;;;;;;;;;;4286711;81;28557;-84
2022/06/05 23:51:32;;;;;;;14.58;10.95;;;;;;;;;;4329186;81;28558;-86
2022/06/05 23:57:36;;;;;;;15.88;11.57;;;;;;;;;;4260632;82;28558;-85
